createdAt,value
2018-11-23T00:00:33.354Z,1.90
2018-11-23T00:03:02.801Z,1.90
2018-11-23T00:05:32.032Z,1.90
2018-11-23T00:08:01.273Z,1.90
2018-11-23T00:10:31.603Z,1.90
2018-11-23T00:13:00.660Z,1.90
2018-11-23T00:15:29.880Z,1.90
2018-11-23T00:17:58.859Z,1.90
2018-11-23T00:20:29.034Z,2.00
2018-11-23T00:22:58.081Z,2.00
2018-11-23T00:25:27.978Z,1.90
2018-11-23T00:28:01.325Z,1.90
2018-11-23T00:30:31.099Z,1.90
2018-11-23T00:33:00.121Z,1.90
2018-11-23T00:35:30.635Z,1.90
2018-11-23T00:37:59.715Z,1.90
2018-11-23T00:40:31.873Z,1.90
2018-11-23T00:43:01.437Z,2.00
2018-11-23T00:45:30.651Z,1.90
2018-11-23T00:48:00.230Z,1.90
2018-11-23T00:50:29.369Z,1.90
2018-11-23T00:52:59.892Z,1.90
2018-11-23T00:55:30.455Z,1.90
2018-11-23T00:57:59.655Z,2.00
2018-11-23T01:00:31.320Z,2.00
2018-11-23T01:03:01.311Z,2.00
2018-11-23T01:05:30.459Z,2.00
2018-11-23T01:07:59.609Z,2.00
2018-11-23T01:10:30.216Z,2.10
2018-11-23T01:12:59.402Z,2.00
2018-11-23T01:15:28.449Z,2.10
2018-11-23T01:17:57.637Z,2.10
2018-11-23T01:20:27.384Z,2.00
2018-11-23T01:22:57.131Z,2.00
2018-11-23T01:25:27.036Z,2.00
2018-11-23T01:27:56.488Z,1.90
2018-11-23T01:30:27.235Z,1.90
2018-11-23T01:32:56.496Z,1.90
2018-11-23T01:35:25.548Z,1.90
2018-11-23T01:37:54.570Z,1.90
2018-11-23T01:40:27.900Z,1.90
2018-11-23T01:42:57.484Z,1.90
2018-11-23T01:45:26.540Z,1.80
2018-11-23T01:47:55.589Z,1.80
2018-11-23T01:50:26.256Z,1.80
2018-11-23T01:52:55.336Z,1.80
2018-11-23T01:55:25.026Z,1.80
2018-11-23T01:57:54.430Z,1.80
2018-11-23T02:00:24.649Z,1.90
2018-11-23T02:02:54.568Z,1.90
2018-11-23T02:05:23.602Z,1.80
2018-11-23T02:07:52.603Z,1.80
2018-11-23T02:10:21.638Z,1.80
2018-11-23T02:12:50.640Z,1.80
2018-11-23T02:15:20.928Z,1.90
2018-11-23T02:17:50.606Z,1.90
2018-11-23T02:20:20.253Z,1.90
2018-11-23T02:22:49.303Z,1.90
2018-11-23T02:25:18.345Z,2.00
2018-11-23T02:27:47.986Z,2.00
2018-11-23T02:30:22.000Z,2.10
2018-11-23T02:32:50.979Z,2.10
2018-11-23T02:35:20.038Z,2.10
2018-11-23T02:37:53.840Z,2.10
2018-11-23T02:40:22.846Z,2.10
2018-11-23T02:42:51.812Z,2.10
2018-11-23T02:45:22.117Z,2.10
2018-11-23T02:47:51.440Z,2.20
2018-11-23T02:50:20.515Z,2.20
2018-11-23T02:52:49.701Z,2.20
2018-11-23T02:55:19.746Z,2.20
2018-11-23T02:57:49.830Z,2.20
2018-11-23T03:00:20.230Z,2.20
2018-11-23T03:02:49.294Z,2.20
2018-11-23T03:05:21.419Z,2.20
2018-11-23T03:07:50.432Z,2.20
2018-11-23T03:10:19.447Z,2.20
2018-11-23T03:12:49.091Z,2.20
2018-11-23T03:15:19.282Z,2.20
2018-11-23T03:17:48.697Z,2.20
2018-11-23T03:20:21.759Z,2.20
2018-11-23T03:22:50.813Z,2.20
2018-11-23T03:25:19.825Z,2.20
2018-11-23T03:27:48.874Z,2.10
2018-11-23T03:30:20.432Z,2.20
2018-11-23T03:32:50.329Z,2.20
2018-11-23T03:35:19.901Z,2.10
2018-11-23T03:37:48.903Z,2.20
2018-11-23T03:40:18.100Z,2.10
2018-11-23T03:42:47.107Z,2.10
2018-11-23T03:45:16.620Z,2.00
2018-11-23T03:47:46.219Z,2.00
2018-11-23T03:50:16.066Z,2.00
2018-11-23T03:52:45.415Z,2.00
2018-11-23T03:55:14.448Z,2.00
2018-11-23T03:57:43.526Z,2.00
2018-11-23T04:00:17.693Z,2.00
2018-11-23T04:02:46.330Z,2.00
2018-11-23T04:05:15.429Z,2.00
2018-11-23T04:07:44.501Z,2.00
2018-11-23T04:10:15.142Z,2.00
2018-11-23T04:12:44.629Z,2.00
2018-11-23T04:15:14.198Z,2.00
2018-11-23T04:17:43.498Z,2.00
2018-11-23T04:20:13.986Z,2.00
2018-11-23T04:22:43.304Z,2.00
2018-11-23T04:25:12.785Z,2.00
2018-11-23T04:27:42.183Z,2.00
2018-11-23T04:30:13.863Z,2.00
2018-11-23T04:32:43.334Z,2.00
2018-11-23T04:35:13.946Z,2.00
2018-11-23T04:37:43.579Z,2.00
2018-11-23T04:40:13.599Z,2.00
2018-11-23T04:42:42.892Z,1.90
2018-11-23T04:45:12.209Z,2.00
2018-11-23T04:47:41.299Z,1.90
2018-11-23T04:50:13.692Z,1.90
2018-11-23T04:52:42.776Z,1.90
2018-11-23T04:55:11.923Z,1.90
2018-11-23T04:57:40.976Z,1.90
2018-11-23T05:00:13.139Z,1.90
2018-11-23T05:02:42.703Z,1.90
2018-11-23T05:05:12.369Z,1.90
2018-11-23T05:07:42.256Z,1.80
2018-11-23T05:10:12.807Z,1.80
2018-11-23T05:12:41.833Z,1.80
2018-11-23T05:15:12.923Z,1.90
2018-11-23T05:17:42.101Z,1.80
2018-11-23T05:20:11.960Z,1.90
2018-11-23T05:22:41.103Z,1.90
2018-11-23T05:25:11.440Z,1.90
2018-11-23T05:27:40.402Z,1.90
2018-11-23T05:30:12.822Z,1.80
2018-11-23T05:32:41.896Z,1.90
2018-11-23T05:35:12.146Z,1.90
2018-11-23T05:37:41.265Z,1.80
2018-11-23T05:40:12.700Z,1.80
2018-11-23T05:42:41.747Z,1.80
2018-11-23T05:45:13.199Z,1.80
2018-11-23T05:47:42.282Z,1.80
2018-11-23T05:50:15.668Z,1.80
2018-11-23T05:52:45.559Z,1.70
2018-11-23T05:55:14.869Z,1.80
2018-11-23T05:57:44.013Z,1.80
2018-11-23T06:00:16.508Z,1.80
2018-11-23T06:02:45.574Z,1.80
2018-11-23T06:05:14.731Z,1.90
2018-11-23T06:07:43.959Z,1.90
2018-11-23T06:10:15.756Z,1.90
2018-11-23T06:12:45.014Z,1.90
2018-11-23T06:15:16.513Z,1.90
2018-11-23T06:17:46.162Z,1.90
2018-11-23T06:20:17.293Z,2.00
2018-11-23T06:22:47.334Z,2.00
2018-11-23T06:25:30.938Z,2.00
2018-11-23T06:28:00.032Z,2.00
2018-11-23T06:30:29.075Z,2.00
2018-11-23T06:33:09.096Z,2.00
2018-11-23T06:35:38.306Z,2.00
2018-11-23T06:38:07.470Z,2.00
2018-11-23T06:40:36.611Z,2.00
2018-11-23T06:43:06.057Z,2.00
2018-11-23T06:45:40.163Z,2.00
2018-11-23T06:48:10.352Z,2.00
2018-11-23T06:50:39.691Z,2.00
2018-11-23T06:53:09.050Z,2.00
2018-11-23T06:55:38.293Z,2.00
2018-11-23T06:58:07.592Z,2.10
2018-11-23T07:00:36.744Z,2.00
2018-11-23T07:03:06.325Z,2.10
2018-11-23T07:05:35.451Z,2.10
2018-11-23T07:08:04.948Z,2.10
2018-11-23T07:10:34.561Z,2.10
2018-11-23T07:13:03.599Z,2.10
2018-11-23T07:15:32.751Z,2.10
2018-11-23T07:18:01.980Z,2.10
2018-11-23T07:20:30.992Z,2.10
2018-11-23T07:23:00.176Z,2.10
2018-11-23T07:25:29.137Z,2.10
2018-11-23T07:27:58.206Z,2.10
2018-11-23T07:30:28.391Z,2.20
2018-11-23T07:32:57.914Z,2.10
2018-11-23T07:35:27.130Z,2.20
2018-11-23T07:37:56.315Z,2.10
2018-11-23T07:40:40.840Z,2.10
2018-11-23T07:43:09.910Z,2.20
2018-11-23T07:45:38.938Z,2.20
2018-11-23T07:48:08.462Z,2.20
2018-11-23T07:50:39.245Z,2.20
2018-11-23T07:53:08.626Z,2.20
2018-11-23T07:55:37.827Z,2.20
2018-11-23T08:00:34.111Z,2.30
2018-11-23T08:03:03.253Z,2.20
2018-11-23T08:05:32.416Z,2.30
2018-11-23T08:08:01.590Z,2.30
2018-11-23T08:10:29.817Z,2.30
2018-11-23T08:12:58.852Z,2.30
2018-11-23T08:15:28.635Z,2.30
2018-11-23T08:17:57.951Z,2.30
2018-11-23T08:20:27.193Z,2.30
2018-11-23T08:22:56.331Z,2.30
2018-11-23T08:25:26.095Z,2.40
2018-11-23T08:27:56.613Z,2.40
2018-11-23T08:30:28.320Z,2.40
2018-11-23T08:32:57.949Z,2.40
2018-11-23T08:35:27.336Z,2.50
2018-11-23T08:37:56.754Z,2.50
2018-11-23T08:40:27.231Z,2.50
2018-11-23T08:42:56.762Z,2.50
2018-11-23T08:45:27.101Z,2.60
2018-11-23T08:47:56.418Z,2.50
2018-11-23T08:50:27.752Z,2.60
2018-11-23T08:52:57.140Z,2.60
2018-11-23T08:55:26.965Z,2.60
2018-11-23T08:57:56.291Z,2.60
2018-11-23T09:00:27.911Z,2.60
2018-11-23T09:03:01.402Z,2.60
2018-11-23T09:05:30.861Z,2.60
2018-11-23T09:08:00.229Z,2.70
2018-11-23T09:10:32.263Z,2.70
2018-11-23T09:13:03.055Z,2.70
2018-11-23T09:15:32.234Z,2.70
2018-11-23T09:18:01.382Z,2.70
2018-11-23T09:20:31.323Z,2.70
2018-11-23T09:23:00.432Z,2.70
2018-11-23T09:25:29.858Z,2.70
2018-11-23T09:27:59.336Z,2.70
2018-11-23T09:30:29.566Z,2.70
2018-11-23T09:32:59.065Z,2.70
2018-11-23T09:35:31.338Z,2.80
2018-11-23T09:38:00.634Z,2.80
2018-11-23T09:40:30.696Z,2.80
2018-11-23T09:42:59.663Z,2.80
2018-11-23T09:45:30.384Z,2.90
2018-11-23T09:48:01.027Z,2.90
2018-11-23T09:50:37.466Z,2.90
2018-11-23T09:53:06.952Z,2.90
2018-11-23T09:55:37.264Z,2.90
2018-11-23T09:58:06.568Z,3.00
2018-11-23T10:00:37.040Z,3.00
2018-11-23T10:03:07.133Z,3.00
2018-11-23T10:05:37.328Z,3.00
2018-11-23T10:08:07.600Z,3.10
2018-11-23T10:10:37.400Z,3.10
2018-11-23T10:13:06.583Z,3.10
2018-11-23T10:15:35.803Z,3.10
2018-11-23T10:18:05.712Z,3.10
2018-11-23T10:20:35.522Z,3.00
2018-11-23T10:23:05.948Z,3.00
2018-11-23T10:25:35.981Z,3.00
2018-11-23T10:28:05.604Z,3.00
2018-11-23T10:30:35.893Z,3.00
2018-11-23T10:33:06.529Z,3.00
2018-11-23T10:35:36.004Z,3.00
2018-11-23T10:38:06.446Z,3.00
2018-11-23T10:40:38.064Z,3.00
2018-11-23T10:43:07.660Z,3.00
2018-11-23T10:45:37.269Z,3.10
2018-11-23T10:48:07.448Z,3.10
2018-11-23T10:50:39.481Z,3.10
2018-11-23T10:53:08.729Z,3.20
2018-11-23T10:55:38.872Z,3.20
2018-11-23T10:58:08.204Z,3.20
2018-11-23T11:00:42.570Z,3.30
2018-11-23T11:03:17.047Z,3.30
2018-11-23T11:05:51.712Z,3.30
2018-11-23T11:08:20.936Z,3.40
2018-11-23T11:10:50.328Z,3.40
2018-11-23T11:13:19.725Z,3.40
2018-11-23T11:15:53.153Z,3.40
2018-11-23T11:18:23.295Z,3.40
2018-11-23T11:20:52.704Z,3.30
2018-11-23T11:23:21.958Z,3.30
2018-11-23T11:25:51.269Z,3.30
2018-11-23T11:28:20.543Z,3.30
2018-11-23T11:30:49.742Z,3.30
2018-11-23T11:33:19.509Z,3.30
2018-11-23T11:35:48.663Z,3.20
2018-11-23T11:38:22.162Z,3.20
2018-11-23T11:40:52.437Z,3.30
2018-11-23T11:43:22.633Z,3.30
2018-11-23T11:45:52.630Z,3.30
2018-11-23T11:48:21.790Z,3.30
2018-11-23T11:50:51.248Z,3.30
2018-11-23T11:53:20.454Z,3.40
2018-11-23T11:55:49.636Z,3.40
2018-11-23T11:58:18.998Z,3.40
2018-11-23T12:00:48.323Z,3.40
2018-11-23T12:03:17.442Z,3.40
2018-11-23T12:05:47.581Z,3.40
2018-11-23T12:08:17.577Z,3.50
2018-11-23T12:10:46.793Z,3.50
2018-11-23T12:13:16.311Z,3.40
2018-11-23T12:15:48.055Z,3.40
2018-11-23T12:18:17.399Z,3.40
2018-11-23T12:20:47.177Z,3.50
2018-11-23T12:23:17.326Z,3.40
2018-11-23T12:25:46.733Z,3.40
2018-11-23T12:28:16.548Z,3.40
2018-11-23T12:30:45.893Z,3.40
2018-11-23T12:33:15.037Z,3.30
2018-11-23T12:35:44.269Z,3.30
2018-11-23T12:38:17.679Z,3.30
2018-11-23T12:40:46.703Z,3.30
2018-11-23T12:43:15.927Z,3.30
2018-11-23T12:45:45.076Z,3.30
2018-11-23T12:48:18.632Z,3.30
2018-11-23T12:50:48.019Z,3.30
2018-11-23T12:53:23.985Z,3.30
2018-11-23T12:55:53.928Z,3.30
2018-11-23T12:58:24.741Z,3.30
2018-11-23T13:00:55.840Z,3.30
2018-11-23T13:03:25.116Z,3.30
2018-11-23T13:05:55.015Z,3.30
2018-11-23T13:08:24.669Z,3.30
2018-11-23T13:10:57.525Z,3.30
2018-11-23T13:13:28.380Z,3.30
2018-11-23T13:16:07.287Z,3.30
2018-11-23T13:18:36.760Z,3.40
2018-11-23T13:21:16.837Z,3.40
2018-11-23T13:23:47.437Z,3.40
2018-11-23T13:26:18.638Z,3.40
2018-11-23T13:28:50.241Z,3.40
2018-11-23T13:31:27.351Z,3.40
2018-11-23T13:34:13.496Z,3.40
2018-11-23T13:36:53.542Z,3.40
2018-11-23T13:39:23.368Z,3.30
2018-11-23T13:41:53.622Z,3.40
2018-11-23T13:44:25.393Z,3.40
2018-11-23T13:46:59.668Z,3.40
2018-11-23T13:49:29.736Z,3.30
2018-11-23T13:51:59.175Z,3.30
2018-11-23T13:54:45.091Z,3.30
2018-11-23T13:57:29.105Z,3.40
2018-11-23T13:59:59.794Z,3.30
2018-11-23T14:02:29.820Z,3.30
2018-11-23T14:05:00.014Z,3.30
2018-11-23T14:07:31.299Z,3.30
2018-11-23T14:10:05.974Z,3.30
2018-11-23T14:12:41.040Z,3.30
2018-11-23T14:15:17.827Z,3.30
2018-11-23T14:17:48.396Z,3.30
2018-11-23T14:20:22.066Z,3.30
2018-11-23T14:22:56.452Z,3.30
2018-11-23T14:25:29.048Z,3.30
2018-11-23T14:28:00.913Z,3.30
2018-11-23T14:30:33.129Z,3.30
2018-11-23T14:33:03.383Z,3.30
2018-11-23T14:35:41.425Z,3.20
2018-11-23T14:38:12.240Z,3.20
2018-11-23T14:40:44.631Z,3.30
2018-11-23T14:43:16.344Z,3.20
2018-11-23T14:45:52.602Z,3.20
2018-11-23T14:48:22.202Z,3.20
2018-11-23T14:50:55.626Z,3.20
2018-11-23T14:53:27.995Z,3.20
2018-11-23T14:55:57.578Z,3.10
2018-11-23T14:58:26.978Z,3.10
2018-11-23T15:00:56.737Z,3.10
2018-11-23T15:03:27.352Z,3.10
2018-11-23T15:05:58.436Z,3.10
2018-11-23T15:08:28.321Z,3.10
2018-11-23T15:10:58.940Z,3.10
2018-11-23T15:13:39.196Z,3.10
2018-11-23T15:16:11.826Z,3.10
2018-11-23T15:18:42.610Z,3.10
2018-11-23T15:21:13.433Z,3.20
2018-11-23T15:23:42.852Z,3.20
2018-11-23T15:26:12.225Z,3.20
2018-11-23T15:29:18.475Z,3.20
2018-11-23T15:37:51.230Z,3.20
2018-11-23T15:40:44.739Z,3.20
2018-11-23T15:43:17.979Z,3.20
2018-11-23T15:45:56.390Z,3.20
2018-11-23T15:48:35.704Z,3.20
2018-11-23T15:51:08.406Z,3.30
2018-11-23T16:06:38.839Z,3.30
2018-11-23T16:09:14.309Z,3.30
2018-11-23T16:15:05.512Z,3.10
2018-11-23T16:23:34.270Z,3.10
2018-11-23T16:51:08.703Z,3.20
2018-11-23T16:53:58.678Z,3.30
2018-11-23T17:19:45.615Z,3.30
2018-11-23T17:22:23.165Z,3.40
2018-11-23T17:24:54.229Z,3.40
2018-11-23T17:27:28.802Z,3.40
2018-11-23T17:29:59.292Z,3.40
2018-11-23T17:32:30.554Z,3.40
2018-11-23T17:35:03.536Z,3.40
2018-11-23T17:41:02.838Z,3.40
2018-11-23T17:43:33.021Z,3.40
2018-11-23T17:46:06.882Z,3.40
2018-11-23T17:48:59.584Z,3.40
2018-11-23T19:18:28.500Z,3.40
2018-11-23T19:20:58.176Z,3.30
2018-11-23T19:23:27.396Z,3.30
2018-11-23T19:25:57.185Z,3.30
2018-11-23T19:28:26.526Z,3.40
2018-11-23T19:30:55.867Z,3.40
2018-11-23T19:33:25.288Z,3.40
2018-11-23T19:35:55.364Z,3.40
2018-11-23T19:38:26.119Z,3.50
2018-11-23T19:40:56.116Z,3.50
2018-11-23T19:43:25.531Z,3.50
2018-11-23T19:45:55.589Z,3.50
2018-11-23T19:48:24.760Z,3.50
2018-11-23T19:50:55.010Z,3.60
2018-11-23T19:53:24.631Z,3.50
2018-11-23T19:55:55.310Z,3.50
2018-11-23T19:58:24.646Z,3.50
2018-11-23T20:00:53.825Z,3.50
2018-11-23T20:03:23.206Z,3.50
2018-11-23T20:06:00.123Z,3.50
2018-11-23T20:08:30.281Z,3.50
2018-11-23T20:10:59.506Z,3.60
2018-11-23T20:13:33.176Z,3.60
2018-11-23T20:18:48.464Z,3.60
2018-11-23T20:21:18.779Z,3.60
2018-11-23T20:23:48.276Z,3.50
2018-11-23T20:26:17.626Z,3.50
2018-11-23T20:28:47.274Z,3.60
2018-11-23T20:31:16.838Z,3.50
2018-11-23T20:33:46.170Z,3.50
2018-11-23T20:36:16.855Z,3.60
2018-11-23T20:38:46.271Z,3.60
2018-11-23T20:41:15.798Z,3.60
2018-11-23T20:43:45.328Z,3.60
2018-11-23T20:46:14.721Z,3.60
2018-11-23T20:48:43.932Z,3.60
2018-11-23T20:51:13.475Z,3.60
2018-11-23T20:53:42.783Z,3.60
2018-11-23T20:56:11.951Z,3.60
2018-11-23T20:58:41.175Z,3.60
2018-11-23T21:01:10.353Z,3.60
2018-11-23T21:03:39.524Z,3.60
2018-11-23T21:06:08.663Z,3.60
2018-11-23T21:08:37.799Z,3.60
2018-11-23T21:11:06.784Z,3.60
2018-11-23T21:13:35.771Z,3.60
2018-11-23T21:16:04.901Z,3.60
2018-11-23T21:18:33.963Z,3.60
2018-11-23T21:21:03.932Z,3.60
2018-11-23T21:23:33.059Z,3.70
2018-11-23T21:26:02.144Z,3.60
2018-11-23T21:28:31.292Z,3.60
2018-11-23T21:31:00.505Z,3.60
2018-11-23T21:33:29.580Z,3.60
2018-11-23T21:35:58.761Z,3.60
2018-11-23T21:38:27.859Z,3.60
2018-11-23T21:40:57.030Z,3.60
2018-11-23T21:43:26.093Z,3.60
2018-11-23T21:45:55.102Z,3.60
2018-11-23T21:48:24.254Z,3.60
2018-11-23T21:50:53.324Z,3.60
2018-11-23T21:53:22.460Z,3.60
2018-11-23T21:55:51.496Z,3.60
2018-11-23T21:58:20.533Z,3.60
2018-11-23T22:00:49.639Z,3.60
2018-11-23T22:03:18.680Z,3.60
2018-11-23T22:05:47.722Z,3.60
2018-11-23T22:08:16.904Z,3.60
2018-11-23T22:10:46.099Z,3.60
2018-11-23T22:13:15.122Z,3.60
2018-11-23T22:15:44.200Z,3.70
2018-11-23T22:18:13.280Z,3.60
2018-11-23T22:20:42.412Z,3.60
2018-11-23T22:23:11.981Z,3.60
2018-11-23T22:25:41.186Z,3.60
2018-11-23T22:28:10.448Z,3.60
2018-11-23T22:30:39.576Z,3.70
2018-11-23T22:33:08.604Z,3.60
2018-11-23T22:35:37.769Z,3.70
2018-11-23T22:38:06.876Z,3.70
2018-11-23T22:40:35.858Z,3.70
2018-11-23T22:43:05.061Z,3.70
2018-11-23T22:45:34.971Z,3.70
2018-11-23T22:48:03.947Z,3.70
2018-11-23T22:50:32.988Z,3.70
2018-11-23T22:53:02.074Z,3.80
2018-11-23T22:55:31.111Z,3.80
2018-11-23T22:58:00.165Z,3.80
2018-11-23T23:00:38.649Z,3.80
2018-11-23T23:03:07.738Z,3.80
2018-11-23T23:05:36.772Z,3.80
2018-11-23T23:08:06.590Z,3.80
2018-11-23T23:10:35.574Z,3.80
2018-11-23T23:13:04.785Z,3.80
2018-11-23T23:15:33.911Z,3.80
2018-11-23T23:18:02.873Z,3.80
2018-11-23T23:20:31.789Z,3.80
2018-11-23T23:23:00.912Z,3.80
2018-11-23T23:25:30.015Z,3.90
2018-11-23T23:27:58.985Z,3.80
2018-11-23T23:30:27.982Z,3.80
2018-11-23T23:32:57.474Z,3.90
2018-11-23T23:35:26.449Z,3.80
2018-11-23T23:37:55.473Z,3.80
2018-11-23T23:40:24.468Z,3.80
2018-11-23T23:42:53.403Z,3.80
2018-11-23T23:45:22.401Z,3.80
2018-11-23T23:47:51.369Z,3.80
2018-11-23T23:50:21.305Z,3.80
2018-11-23T23:52:51.086Z,3.80
2018-11-23T23:55:20.063Z,3.70
2018-11-23T23:57:49.265Z,3.80
